sensor_id;sensor_type;location;lat;lon;timestamp;P1;durP1;ratioP1;P2;durP2;ratioP2
26177;SDS011;13924;47.670;10.310;2023-03-30T00:00:54;9.4;;;2.3;;
26177;SDS011;13924;47.670;10.310;2023-03-30T00:15:54;13.4;;;2.4;;
26177;SDS011;13924;47.670;10.310;2023-03-30T00:30:56;7.8;;;2.0;;
26177;SDS011;13924;47.670;10.310;2023-03-30T00:45:57;14.1;;;2.1;;
26177;SDS011;13924;47.670;10.310;2023-03-30T01:00:56;15.4;;;2.2;;
26177;SDS011;13924;47.670;10.310;2023-03-30T01:01:27;19.2;;;2.5;;
26177;SDS011;13924;47.670;10.310;2023-03-30T01:16:02;6.9;;;2.0;;
26177;SDS011;13924;47.670;10.310;2023-03-30T01:31:35;10.8;;;2.3;;
26177;SDS011;13924;47.670;10.310;2023-03-30T01:46:08;14.5;;;2.7;;
26177;SDS011;13924;47.670;10.310;2023-03-30T02:00:59;15.7;;;2.8;;
26177;SDS011;13924;47.670;10.310;2023-03-30T02:16:00;15.6;;;2.7;;
26177;SDS011;13924;47.670;10.310;2023-03-30T02:31:00;10.9;;;2.4;;
26177;SDS011;13924;47.670;10.310;2023-03-30T02:46:05;13.8;;;2.8;;
26177;SDS011;13924;47.670;10.310;2023-03-30T03:01:04;17.4;;;2.6;;
26177;SDS011;13924;47.670;10.310;2023-03-30T03:16:02;11.0;;;2.6;;
26177;SDS011;13924;47.670;10.310;2023-03-30T03:31:03;17.0;;;2.6;;
26177;SDS011;13924;47.670;10.310;2023-03-30T03:46:03;10.0;;;2.6;;
26177;SDS011;13924;47.670;10.310;2023-03-30T04:01:03;14.3;;;3.2;;
26177;SDS011;13924;47.670;10.310;2023-03-30T04:16:04;8.8;;;2.6;;
26177;SDS011;13924;47.670;10.310;2023-03-30T04:31:06;18.4;;;3.1;;
26177;SDS011;13924;47.670;10.310;2023-03-30T04:46:06;11.0;;;3.2;;
26177;SDS011;13924;47.670;10.310;2023-03-30T05:01:14;21.2;;;3.3;;
26177;SDS011;13924;47.670;10.310;2023-03-30T05:03:53;16.5;;;3.2;;
26177;SDS011;13924;47.670;10.310;2023-03-30T05:18:54;14.1;;;2.8;;
26177;SDS011;13924;47.670;10.310;2023-03-30T05:33:55;12.8;;;2.1;;
26177;SDS011;13924;47.670;10.310;2023-03-30T05:48:56;12.1;;;2.1;;
26177;SDS011;13924;47.670;10.310;2023-03-30T06:03:55;7.9;;;1.9;;
26177;SDS011;13924;47.670;10.310;2023-03-30T06:18:56;8.0;;;2.3;;
26177;SDS011;13924;47.670;10.310;2023-03-30T06:33:57;12.9;;;2.0;;
26177;SDS011;13924;47.670;10.310;2023-03-30T06:48:58;9.0;;;1.6;;
26177;SDS011;13924;47.670;10.310;2023-03-30T07:03:59;7.2;;;2.2;;
26177;SDS011;13924;47.670;10.310;2023-03-30T07:18:59;10.3;;;2.4;;
26177;SDS011;13924;47.670;10.310;2023-03-30T07:34:00;13.6;;;2.0;;
26177;SDS011;13924;47.670;10.310;2023-03-30T07:49:00;15.3;;;3.7;;
26177;SDS011;13924;47.670;10.310;2023-03-30T08:04:02;12.5;;;2.3;;
26177;SDS011;13924;47.670;10.310;2023-03-30T08:19:01;18.0;;;3.0;;
26177;SDS011;13924;47.670;10.310;2023-03-30T08:34:02;17.4;;;3.5;;
26177;SDS011;13924;47.670;10.310;2023-03-30T08:49:03;18.4;;;3.4;;
26177;SDS011;13924;47.670;10.310;2023-03-30T09:04:05;29.0;;;3.7;;
26177;SDS011;13924;47.670;10.310;2023-03-30T09:19:04;21.7;;;3.0;;
26177;SDS011;13924;47.670;10.310;2023-03-30T09:34:04;16.8;;;2.6;;
26177;SDS011;13924;47.670;10.310;2023-03-30T09:49:11;38.0;;;4.7;;
26177;SDS011;13924;47.670;10.310;2023-03-30T10:04:05;15.6;;;3.1;;
26177;SDS011;13924;47.670;10.310;2023-03-30T10:19:06;16.1;;;2.8;;
26177;SDS011;13924;47.670;10.310;2023-03-30T10:34:06;11.0;;;2.5;;
26177;SDS011;13924;47.670;10.310;2023-03-30T10:49:08;10.7;;;2.8;;
26177;SDS011;13924;47.670;10.310;2023-03-30T11:04:09;20.5;;;3.8;;
26177;SDS011;13924;47.670;10.310;2023-03-30T11:19:11;13.2;;;4.0;;
26177;SDS011;13924;47.670;10.310;2023-03-30T11:34:13;17.6;;;4.7;;
26177;SDS011;13924;47.670;10.310;2023-03-30T11:49:15;10.3;;;3.9;;
26177;SDS011;13924;47.670;10.310;2023-03-30T12:04:19;8.0;;;3.8;;
26177;SDS011;13924;47.670;10.310;2023-03-30T12:19:14;8.7;;;3.1;;
26177;SDS011;13924;47.670;10.310;2023-03-30T12:34:13;12.3;;;5.4;;
26177;SDS011;13924;47.670;10.310;2023-03-30T12:49:13;14.6;;;7.4;;
26177;SDS011;13924;47.670;10.310;2023-03-30T13:04:14;19.4;;;6.2;;
26177;SDS011;13924;47.670;10.310;2023-03-30T13:19:20;11.7;;;5.6;;
26177;SDS011;13924;47.670;10.310;2023-03-30T13:34:18;24.4;;;13.5;;
26177;SDS011;13924;47.670;10.310;2023-03-30T13:49:20;6.3;;;3.6;;
26177;SDS011;13924;47.670;10.310;2023-03-30T14:04:15;5.8;;;3.9;;
26177;SDS011;13924;47.670;10.310;2023-03-30T14:19:19;8.2;;;4.6;;
26177;SDS011;13924;47.670;10.310;2023-03-30T14:34:21;6.2;;;4.1;;
26177;SDS011;13924;47.670;10.310;2023-03-30T14:49:17;8.2;;;4.9;;
26177;SDS011;13924;47.670;10.310;2023-03-30T15:04:17;18.9;;;7.2;;
26177;SDS011;13924;47.670;10.310;2023-03-30T15:19:21;13.4;;;6.9;;
26177;SDS011;13924;47.670;10.310;2023-03-30T15:34:18;10.9;;;5.4;;
26177;SDS011;13924;47.670;10.310;2023-03-30T15:49:20;7.0;;;5.5;;
26177;SDS011;13924;47.670;10.310;2023-03-30T16:04:19;6.0;;;4.7;;
26177;SDS011;13924;47.670;10.310;2023-03-30T16:19:19;9.6;;;6.3;;
26177;SDS011;13924;47.670;10.310;2023-03-30T16:34:20;13.3;;;7.2;;
26177;SDS011;13924;47.670;10.310;2023-03-30T16:49:20;18.6;;;11.3;;
26177;SDS011;13924;47.670;10.310;2023-03-30T17:04:21;10.4;;;7.7;;
26177;SDS011;13924;47.670;10.310;2023-03-30T17:19:26;10.2;;;6.0;;
26177;SDS011;13924;47.670;10.310;2023-03-30T17:34:22;13.9;;;6.3;;
26177;SDS011;13924;47.670;10.310;2023-03-30T17:49:23;11.3;;;5.9;;
26177;SDS011;13924;47.670;10.310;2023-03-30T18:04:24;9.6;;;7.6;;
26177;SDS011;13924;47.670;10.310;2023-03-30T18:19:24;12.0;;;7.9;;
26177;SDS011;13924;47.670;10.310;2023-03-30T18:34:25;13.9;;;7.8;;
26177;SDS011;13924;47.670;10.310;2023-03-30T18:49:25;9.0;;;7.0;;
26177;SDS011;13924;47.670;10.310;2023-03-30T19:04:26;9.5;;;6.9;;
26177;SDS011;13924;47.670;10.310;2023-03-30T19:19:28;13.5;;;7.6;;
26177;SDS011;13924;47.670;10.310;2023-03-30T19:34:27;17.8;;;8.6;;
26177;SDS011;13924;47.670;10.310;2023-03-30T19:49:29;10.2;;;7.4;;
26177;SDS011;13924;47.670;10.310;2023-03-30T20:04:28;15.0;;;7.9;;
26177;SDS011;13924;47.670;10.310;2023-03-30T20:19:29;10.6;;;7.4;;
26177;SDS011;13924;47.670;10.310;2023-03-30T20:34:29;10.8;;;7.5;;
26177;SDS011;13924;47.670;10.310;2023-03-30T20:49:30;12.7;;;7.1;;
26177;SDS011;13924;47.670;10.310;2023-03-30T21:04:31;13.1;;;7.2;;
26177;SDS011;13924;47.670;10.310;2023-03-30T21:19:31;68.7;;;19.9;;
26177;SDS011;13924;47.670;10.310;2023-03-30T21:34:32;23.0;;;8.6;;
26177;SDS011;13924;47.670;10.310;2023-03-30T21:49:36;11.4;;;6.5;;
26177;SDS011;13924;47.670;10.310;2023-03-30T22:00:37;13.8;;;7.1;;
26177;SDS011;13924;47.670;10.310;2023-03-30T22:15:37;11.6;;;8.1;;
26177;SDS011;13924;47.670;10.310;2023-03-30T22:30:39;11.3;;;8.1;;
26177;SDS011;13924;47.670;10.310;2023-03-30T22:45:39;14.6;;;8.1;;
26177;SDS011;13924;47.670;10.310;2023-03-30T23:00:39;10.5;;;7.0;;
26177;SDS011;13924;47.670;10.310;2023-03-30T23:15:39;12.2;;;6.7;;
26177;SDS011;13924;47.670;10.310;2023-03-30T23:30:40;13.4;;;6.5;;
26177;SDS011;13924;47.670;10.310;2023-03-30T23:45:41;17.1;;;9.9;;
